Aviation Digital Data Service (ADDS)

Output produced by METARs form (0428 UTC 28 July 2017)
found at http://www.aviationweather.gov/adds/metars/
 
KJFK 280311Z 2803/2906 20009KT P6SM FEW025 BKN035 
     TEMPO 2803/2806 BKN025 
     FM280600 VRB04KT P6SM SCT025 SCT250 
     TEMPO 2806/2808 6SM BR BKN025 
     FM280800 VRB02KT 6SM BR FEW250 
     FM281200 VRB03KT P6SM FEW250 
     FM281600 08006KT P6SM SCT035 BKN250 
     FM282000 11008KT P6SM SCT040 BKN150 
     FM290100 VRB05KT P6SM BKN100 OVC150 
     PROB30 2901/2904 6SM -RA OVC100 
     FM290400 03010KT 4SM RA BR BKN035